Time;durP1;ratioP1;P1;durP2;ratioP2;P2;SDS_P1;SDS_P2;PMS_P1;PMS_P2;Temp;Humidity;BMP_temperature;BMP_pressure;BME280_temperature;BME280_humidity;BME280_pressure;Samples;Min_cycle;Max_cycle;Signal;HPM_P1;HPM_P2
2021/12/15 00:00:28;;;;;;;22.75;3.33;;;;;;;22.74;53.39;100599.19;7311400;19;129411;-30
2021/12/15 00:02:54;;;;;;;14.70;2.42;;;;;;;22.62;53.22;100577.41;7310294;19;129748;-35
2021/12/15 00:05:23;;;;;;;14.73;2.47;;;;;;;22.71;53.88;100581.88;7308762;19;129894;-38
2021/12/15 00:07:51;;;;;;;11.75;1.92;;;;;;;22.68;53.82;100584.75;7309509;19;131307;-35
2021/12/15 00:10:18;;;;;;;6.18;1.55;;;;;;;22.63;53.13;100570.34;7310855;19;128799;-36
2021/12/15 00:12:43;;;;;;;6.85;1.50;;;;;;;22.70;53.70;100579.41;7309006;19;128994;-33
2021/12/15 00:15:09;;;;;;;16.02;2.47;;;;;;;22.69;53.35;100583.00;7308999;19;130578;-29
2021/12/15 00:17:36;;;;;;;11.85;2.28;;;;;;;22.68;53.34;100576.06;7310625;19;130532;-36
2021/12/15 00:20:02;;;;;;;;;;;;;;;22.72;54.88;100582.72;7311447;19;130716;-33
2021/12/15 00:22:27;;;;;;;14.07;2.40;;;;;;;22.70;53.12;100579.41;7308493;19;129493;-35
2021/12/15 00:24:53;;;;;;;10.73;2.28;;;;;;;22.67;53.16;100580.50;7309073;19;130299;-32
2021/12/15 00:27:18;;;;;;;9.90;1.77;;;;;;;22.66;52.93;100572.75;7310066;19;130513;-35
2021/12/15 00:29:44;;;;;;;19.88;3.40;;;;;;;22.69;53.23;100585.59;7310765;19;129535;-31
2021/12/15 00:32:09;;;;;;;12.85;2.17;;;;;;;22.70;53.60;100575.00;7306215;19;130672;-33
2021/12/15 00:34:38;;;;;;;14.45;2.30;;;;;;;22.58;54.29;100559.41;7309706;19;129505;-35
2021/12/15 00:37:05;;;;;;;11.25;2.08;;;;;;;22.71;53.75;100581.88;7310022;19;130399;-33
2021/12/15 00:39:31;;;;;;;22.08;3.90;;;;;;;;;;7309563;19;129281;-37
2021/12/15 00:41:57;;;;;;;13.88;2.40;;;;;;;22.67;53.81;100584.88;7311818;19;130071;-35
2021/12/15 00:44:24;;;;;;;12.27;2.28;;;;;;;22.66;53.59;100581.44;7307813;19;131052;-34
2021/12/15 00:46:51;;;;;;;11.45;2.05;;;;;;;22.61;53.47;100577.53;7309550;19;129451;-39
2021/12/15 00:49:17;;;;;;;56.90;9.82;;;;;;;22.54;54.32;100585.06;7306755;19;129286;-36
2021/12/15 00:51:43;;;;;;;14.35;2.75;;;;;;;22.54;55.15;100586.81;7308406;19;129497;-37
2021/12/15 00:54:10;;;;;;;14.32;2.50;;;;;;;22.55;54.37;100594.56;7308733;19;129144;-31
2021/12/15 00:56:36;;;;;;;12.60;2.15;;;;;;;22.57;53.64;100595.28;7309180;19;130464;-33
2021/12/15 00:59:07;;;;;;;15.83;2.73;;;;;;;22.60;54.97;100584.56;7310037;19;129592;-35
2021/12/15 01:01:35;;;;;;;16.73;2.45;;;;;;;22.55;54.33;100591.09;7309373;19;128931;-32
2021/12/15 01:04:02;;;;;;;71.00;12.60;;;;;;;22.56;53.96;100595.41;7304260;19;129611;-34
2021/12/15 01:06:29;;;;;;;19.98;3.25;;;;;;;22.57;54.85;100597.06;7303459;19;129951;-37
2021/12/15 01:09:01;;;;;;;12.55;2.13;;;;;;;22.52;54.63;100592.16;7308176;19;129453;-35
2021/12/15 01:19:54;;;;;;;18.90;2.75;;;;;;;22.45;55.10;100606.69;7309176;19;128972;-34
2021/12/15 01:22:31;;;;;;;19.02;2.83;;;;;;;22.44;55.81;100612.06;7308500;19;128923;-40
2021/12/15 01:25:04;;;;;;;12.50;2.28;;;;;;;22.43;54.68;100619.06;7306804;19;130112;-35
2021/12/15 01:27:29;;;;;;;21.35;3.45;;;;;;;22.43;54.24;100618.25;7307465;19;130314;-36
2021/12/15 01:29:55;;;;;;;13.57;2.13;;;;;;;22.43;54.85;100618.25;7309396;19;129821;-37
2021/12/15 01:32:20;;;;;;;15.13;2.80;;;;;;;22.46;54.60;100618.81;7305944;19;129014;-41
2021/12/15 01:34:46;;;;;;;11.82;2.15;;;;;;;22.42;54.00;100625.28;7307571;19;129075;-31
2021/12/15 01:37:12;;;;;;;11.45;2.13;;;;;;;22.44;55.09;100625.16;7307431;19;129314;-36
2021/12/15 01:39:38;;;;;;;17.25;2.78;;;;;;;22.38;54.11;100626.47;7307586;19;129056;-35
2021/12/15 01:42:04;;;;;;;11.07;2.23;;;;;;;22.34;54.37;100624.22;7310548;19;129700;-37
2021/12/15 01:47:02;;;;;;;10.63;1.95;;;;;;;22.38;55.52;100631.69;7314923;19;128947;-38
2021/12/15 01:49:34;;;;;;;19.05;3.03;;;;;;;22.40;55.08;100624.56;7315334;19;129028;-35
2021/12/15 01:52:04;;;;;;;12.57;2.15;;;;;;;22.37;55.38;100634.44;7313277;19;129902;-34
2021/12/15 01:54:33;;;;;;;22.98;3.72;;;;;;;22.38;54.21;100630.88;7313672;19;129211;-36
2021/12/15 01:56:59;;;;;;;11.98;2.05;;;;;;;22.35;54.51;100631.09;7314566;19;129406;-39
2021/12/15 01:59:27;;;;;;;14.75;2.58;;;;;;;22.28;54.98;100614.22;7315257;19;129027;-35
2021/12/15 02:01:52;;;;;;;16.27;2.67;;;;;;;22.36;55.19;100630.16;7313442;19;129287;-33
2021/12/15 02:04:19;;;;;;;14.68;2.90;;;;;;;22.37;54.48;100629.19;7313128;19;129096;-34
2021/12/15 02:06:45;;;;;;;15.60;2.63;;;;;;;22.36;54.49;100624.94;7313171;19;130714;-35
2021/12/15 02:09:16;;;;;;;13.18;2.28;;;;;;;22.41;54.84;100620.16;7314389;19;129875;-32
2021/12/15 02:11:41;;;;;;;14.07;2.30;;;;;;;22.25;54.76;100603.94;7309141;19;129376;-34
2021/12/15 02:14:07;;;;;;;15.18;2.20;;;;;;;22.35;55.24;100616.22;7313336;19;129039;-31
2021/12/15 02:16:33;;;;;;;18.13;2.80;;;;;;;22.43;55.10;100618.25;7313879;19;129030;-33
2021/12/15 02:18:58;;;;;;;17.98;2.80;;;;;;;22.41;54.45;100620.16;7309727;19;128987;-37
2021/12/15 02:21:25;;;;;;;15.70;2.80;;;;;;;22.40;54.18;100618.47;7313701;19;129083;-35
2021/12/15 02:23:56;;;;;;;21.95;4.30;;;;;;;22.38;54.06;100621.22;7314009;19;130171;-36
2021/12/15 02:26:35;;;;;;;5.57;1.40;;;;;;;22.38;54.56;100620.41;7313394;19;130915;-34
2021/12/15 02:29:02;;;;;;;15.70;2.65;;;;;;;22.33;54.88;100628.59;7312628;19;128914;-33
2021/12/15 02:34:19;;;;;;;17.63;3.10;;;;;;;22.37;54.97;100623.97;7306702;19;130826;-36
2021/12/15 02:39:32;;;;;;;23.42;3.65;;;;;;;22.31;54.28;100619.22;7313789;19;128843;-37
2021/12/15 02:41:57;;;;;;;16.83;2.50;;;;;;;22.28;55.40;100625.50;7313190;19;128792;-35
2021/12/15 02:44:24;;;;;;;17.92;2.97;;;;;;;22.30;55.50;100628.84;7311221;19;130150;-38
2021/12/15 02:46:51;;;;;;;13.27;2.17;;;;;;;22.35;55.87;100636.34;7313120;19;130075;-35
2021/12/15 02:49:20;;;;;;;15.48;2.53;;;;;;;22.26;55.25;100624.81;7313119;19;129310;-39
2021/12/15 02:51:47;;;;;;;12.38;1.90;;;;;;;22.32;54.48;100639.19;7312691;19;129334;-33
2021/12/15 02:54:14;;;;;;;14.32;2.28;;;;;;;22.30;54.70;100643.72;7310196;19;129126;-36
2021/12/15 02:56:41;;;;;;;19.95;2.75;;;;;;;22.37;54.82;100631.81;7312635;19;131804;-34
2021/12/15 02:59:08;;;;;;;15.52;2.80;;;;;;;22.29;54.29;100626.34;7312546;19;129495;-37
2021/12/15 03:01:54;;;;;;;19.23;3.00;;;;;;;22.36;54.59;100653.75;7312193;19;129187;-35
2021/12/15 03:06:55;;;;;;;12.68;1.98;;;;;;;22.11;54.61;100653.97;7311527;19;132005;-33
2021/12/15 03:17:20;;;;;;;12.50;2.13;;;;;;;22.37;54.33;100652.78;7312233;19;129849;-38
2021/12/15 03:19:45;;;;;;;18.45;2.83;;;;;;;22.30;54.37;100639.31;7302731;19;130298;-41
2021/12/15 03:22:11;;;;;;;10.35;1.73;;;;;;;22.34;54.64;100655.66;7308554;19;129514;-34
2021/12/15 03:24:36;;;;;;;25.88;3.80;;;;;;;22.39;55.31;100663.97;7301852;19;129882;-36
2021/12/15 03:27:12;;;;;;;14.93;2.35;;;;;;;22.41;54.74;100651.59;7311062;19;130723;-36
2021/12/15 03:37:46;;;;;;;17.35;2.80;;;;;;;22.40;55.21;100665.63;7311342;19;129510;-37
2021/12/15 03:40:18;;;;;;;10.13;1.67;;;;;;;22.35;55.25;100675.63;7312644;19;129348;-33
2021/12/15 03:43:06;;;;;;;17.88;2.67;;;;;;;22.40;56.02;100670.88;7310877;19;129441;-37
2021/12/15 03:45:41;;;;;;;18.65;2.90;;;;;;;22.38;55.79;100668.38;7308599;19;129601;-34
2021/12/15 03:48:11;;;;;;;14.52;2.20;;;;;;;22.33;54.89;100674.94;7311676;19;129620;-34
2021/12/15 03:50:37;;;;;;;14.07;2.25;;;;;;;22.32;54.65;100675.88;7310664;19;129284;-35
2021/12/15 03:53:05;;;;;;;12.07;2.20;;;;;;;22.12;53.59;100658.22;7308648;19;129237;-37
2021/12/15 03:55:33;;;;;;;14.90;2.75;;;;;;;22.26;54.09;100673.75;7307531;19;129551;-35
2021/12/15 03:58:01;;;;;;;13.23;2.38;;;;;;;22.36;52.95;100672.09;7312273;19;129848;-38
2021/12/15 04:00:29;;;;;;;22.25;3.30;;;;;;;22.82;51.72;100668.41;7312104;19;129339;-34
2021/12/15 04:02:55;;;;;;;3.55;1.10;;;;;;;23.37;50.65;100670.06;7307176;19;129621;-34
2021/12/15 04:05:21;;;;;;;28.83;5.40;;;;;;;23.96;48.93;100663.34;7301169;19;130085;-31
2021/12/15 04:07:48;;;;;;;12.77;2.20;;;;;;;24.48;47.97;100672.06;7305397;19;129184;-32
2021/12/15 04:10:16;;;;;;;13.32;2.08;;;;;;;25.07;46.98;100662.44;7310336;19;129029;-33
2021/12/15 04:12:42;;;;;;;69.38;12.20;;;;;;;25.50;45.74;100670.81;7296280;19;129851;-35
2021/12/15 04:18:03;;;;;;;56.08;8.23;;;;;;;26.04;44.17;100671.06;7305805;19;129333;-38
2021/12/15 04:20:36;;;;;;;17.77;2.85;;;;;;;26.19;44.03;100664.38;7306279;19;130856;-37
2021/12/15 04:23:03;;;;;;;17.13;2.60;;;;;;;26.38;43.40;100680.09;7312151;19;129387;-36
2021/12/15 04:25:33;;;;;;;16.70;2.70;;;;;;;26.33;43.90;100687.63;7298612;19;131713;-39
2021/12/15 04:28:13;;;;;;;13.75;2.20;;;;;;;26.37;43.04;100681.09;7307291;19;130371;-40
2021/12/15 04:30:44;;;;;;;14.07;2.42;;;;;;;26.31;43.43;100678.22;7310371;19;128959;-36
2021/12/15 04:33:24;;;;;;;10.90;1.73;;;;;;;26.21;44.14;100678.25;7310097;19;129755;-37
2021/12/15 04:35:53;;;;;;;10.70;1.75;;;;;;;25.99;44.66;100685.59;7306632;19;130402;-37
2021/12/15 04:38:20;;;;;;;13.27;2.00;;;;;;;25.78;44.57;100688.41;7310621;19;129326;-37
2021/12/15 04:40:47;;;;;;;13.93;2.35;;;;;;;25.59;44.89;100683.16;7311394;19;129326;-37
2021/12/15 04:43:12;;;;;;;12.23;2.20;;;;;;;25.34;45.82;100681.03;7309784;19;129159;-35
2021/12/15 04:45:38;;;;;;;22.02;2.92;;;;;;;25.09;46.29;100671.03;7305182;19;131345;-36
2021/12/15 04:48:04;;;;;;;14.93;2.55;;;;;;;24.85;46.80;100670.56;7309314;19;129632;-36
2021/12/15 04:50:31;;;;;;;20.00;3.23;;;;;;;24.75;47.53;100693.38;7308551;19;130620;-38
2021/12/15 04:53:00;;;;;;;11.18;1.85;;;;;;;24.55;48.15;100697.69;7308297;19;129173;-35
2021/12/15 04:55:28;;;;;;;14.98;2.60;;;;;;;24.34;48.68;100703.00;7306204;19;130354;-38
2021/12/15 04:57:55;;;;;;;12.57;2.58;;;;;;;24.19;48.93;100698.22;7309219;19;130203;-37
2021/12/15 05:00:23;;;;;;;17.20;3.05;;;;;;;23.96;48.75;100683.50;7304947;19;129058;-35
2021/12/15 05:02:52;;;;;;;15.88;2.47;;;;;;;23.88;49.68;100697.28;7305827;19;129109;-36
2021/12/15 05:05:19;;;;;;;13.82;2.92;;;;;;;23.76;49.78;100690.44;7305296;19;130201;-35
2021/12/15 05:07:45;;;;;;;12.18;2.67;;;;;;;23.54;46.73;100687.91;7309009;19;130344;-39
2021/12/15 05:10:11;;;;;;;8.25;2.17;;;;;;;23.41;46.76;100692.47;7309055;19;129225;-35
2021/12/15 05:12:37;;;;;;;19.70;3.75;;;;;;;23.21;46.48;100680.09;7306994;19;129952;-39
2021/12/15 05:15:07;;;;;;;10.52;2.65;;;;;;;23.18;47.32;100685.59;7304999;19;129237;-36
2021/12/15 05:17:33;;;;;;;16.55;3.17;;;;;;;23.14;47.97;100689.41;7310731;19;131679;-35
2021/12/15 05:20:02;;;;;;;17.23;3.30;;;;;;;23.04;48.33;100685.88;7314192;19;129033;-31
2021/12/15 05:22:28;;;;;;;24.63;4.10;;;;;;;23.00;49.22;100685.31;7314498;19;131095;-40
2021/12/15 05:24:54;;;;;;;19.83;3.77;;;;;;;22.95;49.78;100689.25;7312655;19;129226;-36
2021/12/15 05:27:19;;;;;;;15.05;3.10;;;;;;;22.92;49.95;100679.00;7315091;19;129591;-33
2021/12/15 05:29:47;;;;;;;8.88;1.95;;;;;;;22.87;50.51;100694.25;7315747;19;130026;-32
2021/12/15 05:32:17;;;;;;;14.63;3.13;;;;;;;22.81;50.67;100697.34;7313602;19;131151;-33
2021/12/15 05:34:43;;;;;;;17.52;3.28;;;;;;;22.75;50.64;100700.47;7310230;19;130216;-31
2021/12/15 05:37:09;;;;;;;11.10;2.33;;;;;;;22.72;51.31;100703.31;7314394;19;129306;-35
2021/12/15 05:39:36;;;;;;;19.63;3.63;;;;;;;22.70;51.22;100706.06;7313882;19;129460;-34
2021/12/15 05:42:02;;;;;;;13.98;2.40;;;;;;;22.68;52.07;100709.75;7314274;19;129301;-30
2021/12/15 05:44:27;;;;;;;18.83;3.20;;;;;;;22.63;51.83;100711.91;7313280;19;129565;-32
2021/12/15 05:46:56;;;;;;;22.65;3.97;;;;;;;22.66;52.56;100715.13;7313277;19;129195;-33
2021/12/15 05:49:22;;;;;;;14.35;3.20;;;;;;;22.67;52.84;100708.09;7313833;19;128948;-38
2021/12/15 05:51:48;;;;;;;10.98;2.05;;;;;;;22.69;51.74;100703.56;7314371;19;129612;-37
2021/12/15 05:54:13;;;;;;;10.98;2.13;;;;;;;22.62;51.90;100710.25;7313042;19;129358;-35
2021/12/15 05:56:40;;;;;;;17.88;2.72;;;;;;;22.65;52.58;100710.00;7313871;19;129179;-35
2021/12/15 05:59:05;;;;;;;16.85;3.50;;;;;;;22.67;52.17;100713.34;7312594;19;129196;-35
2021/12/15 06:01:32;;;;;;;21.85;3.70;;;;;;;22.68;53.30;100709.75;7312479;19;129237;-36
2021/12/15 06:03:57;;;;;;;21.55;3.88;;;;;;;22.71;53.24;100714.78;7312670;19;129608;-35
2021/12/15 06:06:23;;;;;;;14.43;2.78;;;;;;;22.62;53.43;100697.13;7308201;19;129114;-38
2021/12/15 06:08:48;;;;;;;16.95;2.72;;;;;;;22.65;53.04;100708.22;7315142;19;129000;-35
2021/12/15 06:11:14;;;;;;;10.05;1.90;;;;;;;22.55;52.84;100716.91;7304824;19;130209;-37
2021/12/15 06:13:40;;;;;;;16.25;2.95;;;;;;;22.53;52.54;100716.19;7311336;19;129426;-38
2021/12/15 06:16:06;;;;;;;9.33;2.10;;;;;;;22.51;52.63;100721.50;7301371;19;131429;-34
2021/12/15 06:18:32;;;;;;;25.23;4.03;;;;;;;22.49;52.46;100725.22;7312422;19;129763;-34
2021/12/15 06:20:59;;;;;;;24.83;4.20;;;;;;;22.52;52.42;100724.97;7310709;19;129164;-38
2021/12/15 06:23:25;;;;;;;27.73;4.53;;;;;;;22.55;52.56;100727.38;7308376;19;129203;-33
2021/12/15 06:25:52;;;;;;;18.33;2.77;;;;;;;22.61;51.96;100737.41;7298432;19;130447;-35
2021/12/15 06:28:19;;;;;;;19.20;2.83;;;;;;;22.66;51.97;100720.34;7308006;19;129629;-38
2021/12/15 06:30:45;;;;;;;19.65;2.95;;;;;;;22.75;51.76;100734.53;7309529;19;130817;-37
2021/12/15 06:33:12;;;;;;;23.52;3.65;;;;;;;22.85;51.23;100745.97;7307928;19;131181;-39
2021/12/15 06:35:37;;;;;;;;;;;;;;;22.90;51.59;100744.69;7307210;19;131437;-38
2021/12/15 06:38:04;;;;;;;6.30;1.73;;;;;;;23.02;50.68;100737.63;7314664;19;128950;-35
2021/12/15 06:40:29;;;;;;;18.58;2.90;;;;;;;23.08;51.07;100739.75;7312924;19;129576;-39
2021/12/15 06:42:55;;;;;;;9.98;2.10;;;;;;;23.15;50.58;100743.56;7314470;19;130361;-38
2021/12/15 06:45:27;;;;;;;12.82;2.60;;;;;;;23.16;50.98;100745.22;7312681;19;130182;-36
2021/12/15 06:58:33;;;;;;;9.43;1.80;;;;;;;23.40;50.28;100747.72;7303414;19;129029;-38
2021/12/15 07:01:01;;;;;;;13.27;2.65;;;;;;;23.41;50.12;100744.97;7301025;19;128977;-41
2021/12/15 07:03:27;;;;;;;23.02;3.78;;;;;;;23.41;50.39;100744.97;7312852;19;131631;-36
2021/12/15 07:05:55;;;;;;;16.02;2.50;;;;;;;23.44;50.49;100738.63;7311114;19;129928;-34
2021/12/15 07:08:21;;;;;;;12.40;2.28;;;;;;;23.43;50.39;100745.69;7313910;19;129205;-36
2021/12/15 07:10:49;;;;;;;12.55;2.22;;;;;;;23.42;49.76;100751.88;7313042;19;130673;-35
2021/12/15 07:13:16;;;;;;;12.13;2.50;;;;;;;23.41;49.83;100750.22;7311307;19;129175;-39
2021/12/15 07:15:44;;;;;;;15.32;2.28;;;;;;;23.37;50.46;100746.16;7311197;19;129127;-33
2021/12/15 07:18:12;;;;;;;19.38;3.10;;;;;;;23.35;50.43;100755.97;7311929;19;129002;-36
2021/12/15 07:20:43;;;;;;;21.77;3.28;;;;;;;23.33;50.31;100757.03;7313107;19;129060;-35
2021/12/15 07:23:13;;;;;;;17.52;2.53;;;;;;;23.30;51.12;100762.53;7311693;19;129025;-35
2021/12/15 07:25:41;;;;;;;24.08;3.30;;;;;;;23.22;50.90;100765.75;7309784;19;129964;-37
2021/12/15 07:28:10;;;;;;;18.70;3.10;;;;;;;23.12;51.19;100759.56;7300977;19;129945;-33
2021/12/15 07:30:37;;;;;;;19.85;2.85;;;;;;;23.04;51.30;100747.03;7309440;19;128961;-34
2021/12/15 07:33:04;;;;;;;7.40;1.30;;;;;;;23.07;51.49;100766.97;7302182;19;129646;-36
2021/12/15 07:35:30;;;;;;;;;;;;;;;23.00;51.41;100766.63;7301775;19;131613;-36
2021/12/15 07:37:55;;;;;;;18.65;2.95;;;;;;;22.97;51.66;100760.75;7293054;19;131417;-37
2021/12/15 07:40:23;;;;;;;18.90;3.28;;;;;;;22.93;51.51;100770.66;7300599;19;129247;-34
2021/12/15 07:42:57;;;;;;;11.40;2.10;;;;;;;22.90;52.11;100772.69;7309592;19;129301;-37
2021/12/15 07:45:25;;;;;;;51.83;8.35;;;;;;;22.86;51.90;100773.88;7299332;19;130562;-44
2021/12/15 07:47:55;;;;;;;16.83;2.33;;;;;;;22.80;52.48;100769.94;7307591;19;129086;-35
2021/12/15 07:50:21;;;;;;;13.07;2.33;;;;;;;22.80;51.85;100771.72;7311102;19;130437;-33
2021/12/15 07:52:48;;;;;;;25.63;4.03;;;;;;;22.77;53.13;100777.22;7309099;19;132087;-37
2021/12/15 07:55:14;;;;;;;18.88;3.33;;;;;;;22.71;52.11;100777.69;7308457;19;130378;-40
2021/12/15 07:57:40;;;;;;;24.60;3.53;;;;;;;22.66;52.08;100777.22;7306791;19;129586;-35
2021/12/15 08:00:08;;;;;;;16.55;2.55;;;;;;;22.61;52.59;100781.97;7300091;19;130708;-36
2021/12/15 08:02:33;;;;;;;18.25;3.03;;;;;;;22.61;52.86;100777.53;7305125;19;129136;-35
2021/12/15 08:04:59;;;;;;;19.75;2.92;;;;;;;22.57;52.73;100784.00;7299312;19;130220;-41
2021/12/15 08:07:24;;;;;;;25.60;4.20;;;;;;;22.55;52.56;100779.81;7310727;19;129348;-34
2021/12/15 08:09:50;;;;;;;29.35;4.20;;;;;;;22.56;52.42;100784.13;7309173;19;128846;-36
2021/12/15 08:12:16;;;;;;;22.75;3.55;;;;;;;22.54;52.78;100781.59;7307363;19;130279;-37
2021/12/15 08:14:41;;;;;;;20.43;3.03;;;;;;;22.53;53.14;100790.41;7309479;19;129515;-34
2021/12/15 08:17:07;;;;;;;19.95;2.97;;;;;;;22.54;53.34;100788.63;7309316;19;129384;-37
2021/12/15 08:19:32;;;;;;;22.20;3.17;;;;;;;22.51;52.85;100789.66;7310851;19;130461;-32
2021/12/15 08:21:58;;;;;;;20.60;3.35;;;;;;;22.53;52.94;100793.03;7310355;19;130184;-31
2021/12/15 08:24:23;;;;;;;8.05;1.65;;;;;;;22.50;53.26;100792.38;7300150;19;129308;-35
2021/12/15 08:26:48;;;;;;;72.78;13.57;;;;;;;22.53;53.12;100797.41;7302951;19;132602;-35
2021/12/15 08:29:14;;;;;;;8.95;1.58;;;;;;;22.52;52.83;100790.50;7309817;19;129633;-36
2021/12/15 08:31:40;;;;;;;14.20;2.20;;;;;;;22.48;53.28;100779.41;7308826;19;129560;-31
2021/12/15 08:34:08;;;;;;;19.45;2.92;;;;;;;22.47;53.03;100792.63;7299859;19;131053;-38
2021/12/15 08:36:34;;;;;;;28.45;4.38;;;;;;;22.45;53.08;100791.91;7309129;19;131654;-39
2021/12/15 08:38:59;;;;;;;17.33;2.83;;;;;;;22.44;52.77;100795.47;7309321;19;128855;-40
2021/12/15 08:41:28;;;;;;;18.00;3.22;;;;;;;22.47;52.88;100792.63;7307687;19;131135;-33
2021/12/15 08:43:54;;;;;;;18.70;3.45;;;;;;;22.43;53.29;100796.44;7308804;19;129188;-33
2021/12/15 08:46:24;;;;;;;15.38;2.78;;;;;;;22.41;53.09;100799.16;7306083;19;129706;-36
2021/12/15 08:48:50;;;;;;;21.27;4.22;;;;;;;22.43;52.77;100796.44;7304681;19;128997;-41
2021/12/15 08:51:20;;;;;;;12.57;2.20;;;;;;;22.41;53.19;100798.34;7307739;19;129139;-41
2021/12/15 08:53:46;;;;;;;21.10;3.85;;;;;;;22.44;53.72;100798.09;7311089;19;133157;-40
2021/12/15 08:56:12;;;;;;;4.80;1.30;;;;;;;22.43;52.78;100796.44;7313262;19;129159;-35
2021/12/15 08:58:38;;;;;;;14.27;2.28;;;;;;;22.49;53.03;100803.84;7311980;19;130086;-37
2021/12/15 09:01:06;;;;;;;12.40;2.13;;;;;;;22.46;53.16;100804.06;7316288;19;130482;-30
2021/12/15 09:03:32;;;;;;;20.58;3.42;;;;;;;22.47;53.21;100787.38;7313703;19;130252;-36
2021/12/15 09:06:00;;;;;;;12.67;2.23;;;;;;;22.47;52.76;100792.63;7313833;19;129081;-36
2021/12/15 09:08:27;;;;;;;15.73;2.53;;;;;;;22.49;53.00;100795.97;7316390;19;129351;-36
2021/12/15 09:10:54;;;;;;;;;;;;;;;22.45;53.50;100798.00;7316780;19;129793;-38
2021/12/15 09:13:20;;;;;;;12.45;2.13;;;;;;;22.46;52.72;100798.84;7314459;19;129317;-32
2021/12/15 09:15:45;;;;;;;11.33;1.80;;;;;;;22.39;52.77;100779.28;7314467;19;129285;-34
2021/12/15 09:18:13;;;;;;;7.28;1.67;;;;;;;22.39;52.77;100781.91;7316332;19;129271;-35
2021/12/15 09:20:41;;;;;;;11.05;1.98;;;;;;;22.45;53.39;100802.38;7315941;19;129469;-36
2021/12/15 09:23:10;;;;;;;11.80;2.13;;;;;;;22.47;52.64;100803.94;7315484;19;130433;-33
2021/12/15 09:25:37;;;;;;;17.25;2.65;;;;;;;22.48;53.57;100799.53;7314025;19;129412;-33
2021/12/15 09:28:04;;;;;;;12.70;2.08;;;;;;;22.52;53.09;100806.22;7315312;19;129505;-35
2021/12/15 09:30:30;;;;;;;;;;;;;;;22.42;53.07;100794.75;7315675;19;130654;-35
2021/12/15 09:32:56;;;;;;;17.45;3.20;;;;;;;22.49;53.25;100801.22;7312976;19;131019;-34
2021/12/15 09:35:24;;;;;;;12.55;2.22;;;;;;;22.40;53.25;100791.41;7314134;19;129177;-37
2021/12/15 09:37:51;;;;;;;8.88;1.67;;;;;;;22.51;53.00;100802.75;7315498;19;129537;-37
2021/12/15 09:40:18;;;;;;;12.50;2.10;;;;;;;22.50;53.11;100805.50;7313921;19;130334;-37
2021/12/15 09:42:45;;;;;;;14.20;2.55;;;;;;;22.52;53.27;100806.22;7314459;19;129258;-33
2021/12/15 09:45:48;;;;;;;14.00;2.53;;;;;;;22.50;53.40;100808.13;7313527;19;129371;-35
2021/12/15 10:02:05;;;;;;;8.18;1.60;;;;;;;22.47;52.60;100782.16;7313851;19;129403;-37
2021/12/15 10:04:44;;;;;;;26.63;4.20;;;;;;;22.57;52.85;100804.13;7297292;19;131236;-39
2021/12/15 10:18:38;;;;;;;18.48;2.90;;;;;;;22.53;53.00;100797.41;7313372;19;129434;-36
2021/12/15 10:21:05;;;;;;;;;;;;;;;22.53;53.08;100807.91;7314328;19;129025;-34
2021/12/15 10:23:38;;;;;;;18.27;2.97;;;;;;;22.56;52.79;100802.47;7313135;19;129666;-39
2021/12/15 10:26:06;;;;;;;8.18;1.65;;;;;;;22.56;52.62;100802.47;7311254;19;130430;-36
2021/12/15 10:28:35;;;;;;;17.00;2.67;;;;;;;22.58;53.30;100804.00;7313497;19;129435;-37
2021/12/15 10:31:13;;;;;;;10.95;2.25;;;;;;;22.58;53.19;100803.16;7313521;19;129452;-36
2021/12/15 10:33:43;;;;;;;20.52;3.20;;;;;;;22.60;53.29;100798.63;7311984;19;130404;-34
2021/12/15 10:36:34;;;;;;;6.43;1.52;;;;;;;22.60;52.94;100783.75;7310547;19;129430;-36
2021/12/15 10:39:06;;;;;;;11.18;2.28;;;;;;;22.50;53.16;100781.91;7311465;19;129115;-37
2021/12/15 10:41:39;;;;;;;27.42;4.28;;;;;;;22.59;53.42;100791.75;7312437;19;129108;-31
2021/12/15 10:44:10;;;;;;;17.25;2.70;;;;;;;22.60;52.94;100793.41;7309868;19;129667;-34
2021/12/15 10:46:38;;;;;;;20.17;3.17;;;;;;;22.63;53.30;100787.91;7310951;19;129350;-36
2021/12/15 10:49:14;;;;;;;19.10;3.05;;;;;;;22.61;53.25;100784.59;7312228;19;128996;-36
2021/12/15 10:51:49;;;;;;;24.17;3.30;;;;;;;22.61;53.40;100785.41;7308055;19;130595;-39
2021/12/15 10:54:17;;;;;;;11.65;2.20;;;;;;;22.56;52.73;100776.25;7307675;19;129780;-39
2021/12/15 10:56:53;;;;;;;14.13;2.13;;;;;;;22.62;53.02;100781.84;7314298;19;130176;-30
2021/12/15 10:59:20;;;;;;;13.60;2.20;;;;;;;22.59;52.75;100783.88;7300122;19;129424;-34
2021/12/15 11:01:45;;;;;;;14.55;2.15;;;;;;;22.63;52.68;100782.66;7312674;19;130209;-33
2021/12/15 11:04:37;;;;;;;29.15;4.10;;;;;;;22.66;52.56;100783.28;7310277;19;130313;-38
2021/12/15 11:07:10;;;;;;;15.52;2.35;;;;;;;22.65;52.88;100786.00;7312167;19;129167;-39
2021/12/15 11:09:42;;;;;;;15.23;2.35;;;;;;;22.66;52.78;100787.69;7313341;19;129485;-34
2021/12/15 11:12:08;;;;;;;12.52;1.90;;;;;;;;;;7313527;19;129070;-36
2021/12/15 11:14:39;;;;;;;16.17;2.28;;;;;;;22.60;52.79;100777.66;7301766;19;129940;-39
2021/12/15 11:17:06;;;;;;;19.08;2.92;;;;;;;22.62;52.81;100776.63;7313284;19;130740;-38
2021/12/15 11:19:47;;;;;;;20.05;3.30;;;;;;;22.61;52.82;100780.16;7304942;19;129909;-40
2021/12/15 11:22:47;;;;;;;8.75;1.67;;;;;;;22.60;53.34;100775.88;7313504;19;129099;-39
2021/12/15 11:25:31;;;;;;;41.25;7.72;;;;;;;22.57;53.08;100767.41;7303015;19;130020;-36
2021/12/15 11:28:29;;;;;;;16.02;2.63;;;;;;;22.64;52.95;100779.13;7312762;19;130144;-33
2021/12/15 11:30:59;;;;;;;20.58;2.60;;;;;;;22.65;52.61;100780.78;7311750;19;128987;-36
2021/12/15 11:33:27;;;;;;;17.33;2.95;;;;;;;22.58;52.47;100769.06;7285699;19;131071;-38
2021/12/15 11:35:59;;;;;;;23.17;3.25;;;;;;;22.66;52.83;100787.69;7306137;19;129403;-37
2021/12/15 11:38:31;;;;;;;18.50;2.65;;;;;;;22.65;53.20;100786.00;7311997;19;130823;-34
2021/12/15 11:40:57;;;;;;;13.68;2.05;;;;;;;22.64;53.32;100781.72;7310834;19;129707;-33
2021/12/15 11:43:46;;;;;;;17.38;2.60;;;;;;;22.63;53.14;100782.66;7309078;19;129341;-36
2021/12/15 11:46:16;;;;;;;26.88;4.07;;;;;;;22.62;52.91;100775.78;7307430;19;129544;-36
2021/12/15 11:48:42;;;;;;;17.77;2.35;;;;;;;22.61;53.38;100777.53;7310053;19;129268;-35
2021/12/15 11:51:08;;;;;;;13.07;2.15;;;;;;;22.63;52.73;100777.44;7309954;19;129478;-37
2021/12/15 11:53:39;;;;;;;;;;;;;;;22.55;53.37;100764.91;7309935;19;129557;-40
2021/12/15 11:56:13;;;;;;;11.45;2.05;;;;;;;22.65;53.45;100775.53;7307410;19;130170;-34
2021/12/15 11:58:40;;;;;;;20.02;3.05;;;;;;;22.56;52.73;100760.53;7308303;19;129631;-33
2021/12/15 12:01:05;;;;;;;23.35;3.13;;;;;;;22.67;52.76;100773.63;7310180;19;129432;-36
2021/12/15 12:03:31;;;;;;;19.83;2.92;;;;;;;22.57;53.02;100754.31;7310649;19;130295;-34
2021/12/15 12:05:57;;;;;;;21.10;2.88;;;;;;;22.64;52.72;100771.25;7306027;19;129613;-32
2021/12/15 12:08:23;;;;;;;14.00;2.13;;;;;;;22.65;52.53;100770.28;7311521;19;130337;-36
2021/12/15 12:10:51;;;;;;;9.93;1.67;;;;;;;22.60;52.84;100772.41;7310306;19;129307;-33
2021/12/15 12:13:27;;;;;;;23.63;3.63;;;;;;;22.62;53.27;100766.13;7307278;19;129066;-38
2021/12/15 12:15:57;;;;;;;9.07;1.58;;;;;;;;;;7307280;19;131654;-37
2021/12/15 12:18:27;;;;;;;20.30;3.13;;;;;;;22.66;52.47;100771.97;7306624;19;129301;-34
2021/12/15 12:20:55;;;;;;;20.77;2.97;;;;;;;22.65;52.66;100770.28;7307650;19;129628;-31
2021/12/15 12:23:28;;;;;;;13.10;2.17;;;;;;;22.62;53.39;100775.78;7307817;19;130071;-34
2021/12/15 12:25:56;;;;;;;18.15;3.67;;;;;;;22.55;49.54;100774.56;7303990;19;129996;-31
2021/12/15 12:28:33;;;;;;;24.17;3.60;;;;;;;22.52;50.65;100785.25;7304773;19;129701;-35
2021/12/15 12:31:02;;;;;;;12.27;2.15;;;;;;;22.53;48.69;100785.16;7307818;19;129640;-37
2021/12/15 12:33:29;;;;;;;21.50;3.45;;;;;;;22.42;48.87;100763.31;7305817;19;129010;-35